Terminal Aerodrome Forecast
Issued by NWS

Home | Current Version | Previous Version | Text Only | Print | Product List | Glossary On
Versions: 1 2 3 4 5 6 7 8 9 10 11 12 13 14 15 16 17 18 19 20 21 22 23 24 25 26 27
478
FTUS41 KBGM 141401 AAA
TAFRME
TAF AMD
KRME 141401Z 1414/1512 31008KT P6SM SCT025 BKN050
      TEMPO 1414/1418 -SHSN OVC025
     FM150200 28005KT 5SM -SHSN OVC025=

USA.gov is the U.S. government's official web portal to all federal, state and local government web resources and services.